Time;durP1;ratioP1;P1;durP2;ratioP2;P2;SDS_P1;SDS_P2;PMS_P1;PMS_P2;Temp;Humidity;BMP_temperature;BMP_pressure;BME280_temperature;BME280_humidity;BME280_pressure;Samples;Min_cycle;Max_cycle;Signal;HPM_P1;HPM_P2
2022/08/14 00:01:43;;;;;;;;;;;21.70;99.90;;;;;;5089265;28;19928;-78
2022/08/14 00:04:09;;;;;;;;;;;21.60;99.90;;;;;;5089354;28;19928;-79
2022/08/14 00:06:34;;;;;;;;;;;21.70;99.90;;;;;;5109578;28;20352;-78
2022/08/14 00:09:00;;;;;;;;;;;21.70;99.90;;;;;;5126904;28;20348;-78
2022/08/14 00:11:26;;;;;;;;;;;21.70;99.90;;;;;;5092221;28;19927;-78
2022/08/14 00:13:52;;;;;;;;;;;21.70;99.90;;;;;;5092645;28;20363;-77
2022/08/14 00:16:17;;;;;;;;;;;21.70;99.90;;;;;;5126474;28;19978;-79
2022/08/14 00:18:43;;;;;;;;;;;21.60;99.90;;;;;;5092085;28;19927;-78
2022/08/14 00:21:08;;;;;;;;;;;21.70;99.90;;;;;;5092542;28;19931;-78
2022/08/14 00:23:34;;;;;;;;;;;21.60;99.90;;;;;;5109298;28;19927;-78
2022/08/14 00:25:59;;;;;;;;;;;21.60;99.90;;;;;;5109377;28;19923;-78
2022/08/14 00:28:25;;;;;;;;;;;21.60;99.90;;;;;;5126494;28;19920;-78
2022/08/14 00:30:58;;;;;;;;;;;21.50;99.90;;;;;;5091854;28;19927;-79
2022/08/14 00:33:25;;;;;;;;;;;21.50;99.90;;;;;;5058200;28;19926;-78
2022/08/14 00:35:52;;;;;;;;;;;21.50;99.90;;;;;;5059760;28;19966;-78
2022/08/14 00:38:18;;;;;;;;;;;21.50;99.90;;;;;;5062381;28;20374;-78
2022/08/14 00:40:44;;;;;;;;;;;21.50;99.90;;;;;;5079277;28;20286;-78
2022/08/14 00:43:10;;;;;;;;;;;21.50;99.90;;;;;;5112825;28;19924;-78
2022/08/14 00:45:35;;;;;;;;;;;21.50;99.90;;;;;;5096089;28;19920;-78
2022/08/14 00:48:01;;;;;;;;;;;21.50;99.90;;;;;;5113405;28;20054;-77
2022/08/14 00:50:29;;;;;;;;;;;21.40;99.90;;;;;;5112990;28;20233;-78
2022/08/14 00:52:56;;;;;;;;;;;21.40;99.90;;;;;;5079170;28;19927;-78
2022/08/14 00:55:22;;;;;;;;;;;21.40;99.90;;;;;;5112582;28;19920;-84
2022/08/14 00:58:29;;;;;;;;;;;21.30;99.90;;;;;;5096138;28;19920;-78
2022/08/14 01:00:33;;;;;;;;;;;21.30;99.90;;;;;;5078674;28;19966;-78
2022/08/14 01:02:59;;;;;;;;;;;21.30;99.90;;;;;;5062323;28;19920;-77
2022/08/14 01:05:25;;;;;;;;;;;21.20;99.90;;;;;;5061258;28;20002;-78
2022/08/14 01:07:58;;;;;;;;;;;21.20;99.90;;;;;;5062136;28;19920;-78
2022/08/14 01:10:49;;;;;;;;;;;21.20;99.90;;;;;;5079665;28;19920;-84
2022/08/14 01:13:15;;;;;;;;;;;21.20;99.90;;;;;;5078637;28;20011;-78
2022/08/14 01:15:44;;;;;;;;;;;21.10;99.90;;;;;;5078585;28;19919;-77
2022/08/14 01:21:02;;;;;;;;;;;21.10;99.90;;;;;;5112402;28;19920;-78
2022/08/14 01:23:29;;;;;;;;;;;21.10;99.90;;;;;;5061812;28;20010;-78
2022/08/14 01:25:55;;;;;;;;;;;21.10;99.90;;;;;;5061924;28;19920;-77
2022/08/14 01:28:25;;;;;;;;;;;21.10;99.90;;;;;;5078583;28;20343;-78
2022/08/14 01:30:54;;;;;;;;;;;21.00;99.90;;;;;;5112001;28;19960;-77
2022/08/14 01:33:28;;;;;;;;;;;21.00;99.90;;;;;;5061170;28;19924;-78
2022/08/14 01:35:56;;;;;;;;;;;21.00;99.90;;;;;;5061750;28;19920;-77
2022/08/14 01:38:23;;;;;;;;;;;20.90;99.90;;;;;;5061770;28;19924;-78
2022/08/14 01:40:49;;;;;;;;;;;20.90;99.90;;;;;;5111891;28;19920;-78
2022/08/14 01:43:16;;;;;;;;;;;20.90;99.90;;;;;;5061603;28;20061;-78
2022/08/14 01:45:47;;;;;;;;;;;20.80;99.90;;;;;;5111423;28;19920;-78
2022/08/14 01:48:14;;;;;;;;;;;20.80;99.90;;;;;;5094135;28;19996;-78
2022/08/14 01:50:41;;;;;;;;;;;20.80;99.90;;;;;;5078052;28;20393;-78
2022/08/14 01:53:07;;;;;;;;;;;20.70;99.90;;;;;;5111691;28;20249;-78
2022/08/14 01:55:33;;;;;;;;;;;20.70;99.90;;;;;;5111654;28;19931;-77
2022/08/14 01:57:59;;;;;;;;;;;20.70;99.90;;;;;;5111047;28;19920;-78
2022/08/14 02:00:25;;;;;;;;;;;20.70;99.90;;;;;;5077846;28;19924;-78
2022/08/14 02:02:50;;;;;;;;;;;20.60;99.90;;;;;;5061070;28;19924;-78
2022/08/14 02:05:16;;;;;;;;;;;20.60;99.90;;;;;;5094778;28;19963;-78
2022/08/14 02:07:45;;;;;;;;;;;20.60;99.90;;;;;;5111449;28;19977;-78
2022/08/14 02:10:12;;;;;;;;;;;20.60;99.90;;;;;;5077259;28;19920;-77
2022/08/14 02:12:37;;;;;;;;;;;20.60;99.90;;;;;;5110934;28;20003;-77
2022/08/14 02:15:04;;;;;;;;;;;20.50;99.90;;;;;;5094614;28;19971;-77
2022/08/14 02:17:32;;;;;;;;;;;20.50;99.90;;;;;;5077550;28;19924;-78
2022/08/14 02:19:57;;;;;;;;;;;20.50;99.90;;;;;;5110907;28;19975;-78
2022/08/14 02:22:23;;;;;;;;;;;20.50;99.90;;;;;;5110920;28;19959;-78
2022/08/14 02:24:50;;;;;;;;;;;20.50;99.90;;;;;;5094207;28;19970;-78
2022/08/14 02:27:17;;;;;;;;;;;20.50;99.90;;;;;;5077353;28;19974;-78
2022/08/14 02:29:42;;;;;;;;;;;20.40;99.90;;;;;;5060566;28;19975;-78
2022/08/14 02:32:09;;;;;;;;;;;20.40;99.90;;;;;;5084382;28;20334;-78
2022/08/14 02:34:35;;;;;;;;;;;20.40;99.90;;;;;;5093971;28;20245;-82
2022/08/14 02:37:05;;;;;;;;;;;20.40;99.90;;;;;;5094128;28;19927;-77
2022/08/14 02:39:31;;;;;;;;;;;20.40;99.90;;;;;;5094103;28;19963;-78
2022/08/14 02:41:57;;;;;;;;;;;20.40;99.90;;;;;;5093492;28;19920;-77
2022/08/14 02:44:23;;;;;;;;;;;20.40;99.90;;;;;;5093982;28;19919;-78
2022/08/14 02:46:50;;;;;;;;;;;20.40;99.90;;;;;;5127811;27;19920;-78
2022/08/14 02:49:16;;;;;;;;;;;20.40;99.90;;;;;;5128137;27;20255;-76
2022/08/14 02:51:45;;;;;;;;;;;20.40;99.90;;;;;;5076115;28;19924;-76
2022/08/14 02:54:11;;;;;;;;;;;20.30;99.90;;;;;;5127944;27;20264;-76
2022/08/14 02:56:37;;;;;;;;;;;20.30;99.90;;;;;;5076290;28;19926;-76
2022/08/14 02:59:05;;;;;;;;;;;20.30;99.90;;;;;;5076309;28;19924;-76
2022/08/14 03:01:31;;;;;;;;;;;20.20;99.90;;;;;;5104536;28;19946;-76
2022/08/14 03:03:57;;;;;;;;;;;20.20;99.90;;;;;;5094557;28;19926;-76
2022/08/14 03:06:23;;;;;;;;;;;20.20;99.90;;;;;;5093497;28;19920;-76
2022/08/14 03:08:49;;;;;;;;;;;20.20;99.90;;;;;;5070750;28;19921;-76
2022/08/14 03:11:15;;;;;;;;;;;20.20;99.90;;;;;;5092833;28;19946;-76
2022/08/14 03:13:46;;;;;;;;;;;20.20;99.90;;;;;;5092774;28;19921;-77
2022/08/14 03:16:13;;;;;;;;;;;20.20;99.90;;;;;;5076482;28;20314;-76
2022/08/14 03:18:42;;;;;;;;;;;20.20;99.90;;;;;;5092935;28;19928;-76
2022/08/14 03:21:10;;;;;;;;;;;20.10;99.90;;;;;;5110700;27;19919;-76
2022/08/14 03:23:35;;;;;;;;;;;20.10;99.90;;;;;;5093157;28;20245;-77
2022/08/14 03:26:02;;;;;;;;;;;20.10;99.90;;;;;;5094221;28;19931;-76
2022/08/14 03:28:28;;;;;;;;;;;20.10;99.90;;;;;;5096309;28;19950;-76
2022/08/14 03:30:54;;;;;;;;;;;20.10;99.90;;;;;;5093166;28;19920;-76
2022/08/14 03:33:21;;;;;;;;;;;20.10;99.90;;;;;;5108983;28;19924;-76
2022/08/14 03:35:46;;;;;;;;;;;20.10;99.90;;;;;;5111355;28;19936;-76
2022/08/14 03:38:12;;;;;;;;;;;20.10;99.90;;;;;;5087340;28;19981;-76
2022/08/14 03:40:39;;;;;;;;;;;20.10;99.90;;;;;;5075835;28;20352;-76
2022/08/14 03:43:08;;;;;;;;;;;20.10;99.90;;;;;;5109053;28;20015;-76
2022/08/14 03:45:35;;;;;;;;;;;20.00;99.90;;;;;;5059305;28;19921;-76
2022/08/14 03:48:02;;;;;;;;;;;20.00;99.90;;;;;;5093110;28;19924;-76
2022/08/14 03:50:28;;;;;;;;;;;20.00;99.90;;;;;;5079352;28;19920;-76
2022/08/14 03:52:54;;;;;;;;;;;19.90;99.90;;;;;;5071668;28;20010;-76
2022/08/14 03:55:19;;;;;;;;;;;19.90;99.90;;;;;;5092782;28;19924;-76
2022/08/14 03:57:46;;;;;;;;;;;19.90;99.90;;;;;;5091169;28;19956;-83
2022/08/14 04:00:12;;;;;;;;;;;19.90;99.90;;;;;;5075971;28;19943;-76
2022/08/14 04:02:39;;;;;;;;;;;19.90;99.90;;;;;;5059114;28;20368;-76
2022/08/14 04:05:08;;;;;;;;;;;19.90;99.90;;;;;;5075262;28;19920;-76
2022/08/14 04:07:34;;;;;;;;;;;19.80;99.90;;;;;;5079789;28;20399;-76
2022/08/14 04:10:00;;;;;;;;;;;19.80;99.90;;;;;;5096028;28;19924;-76
2022/08/14 04:12:26;;;;;;;;;;;19.80;99.90;;;;;;5099373;28;20363;-76
2022/08/14 04:14:51;;;;;;;;;;;19.80;99.90;;;;;;5057641;28;20299;-76
2022/08/14 04:17:18;;;;;;;;;;;19.70;99.90;;;;;;5076665;28;19974;-76
2022/08/14 04:19:45;;;;;;;;;;;19.70;99.90;;;;;;5082929;28;19920;-76
2022/08/14 04:22:12;;;;;;;;;;;19.60;99.90;;;;;;5066501;28;19924;-76
2022/08/14 04:24:37;;;;;;;;;;;19.60;99.90;;;;;;5100109;28;20306;-76
2022/08/14 04:27:03;;;;;;;;;;;19.60;99.90;;;;;;5088486;28;19925;-76
2022/08/14 04:29:29;;;;;;;;;;;19.60;99.90;;;;;;5059574;28;19920;-76
2022/08/14 04:31:54;;;;;;;;;;;19.60;99.90;;;;;;5065041;28;20272;-76
2022/08/14 04:34:20;;;;;;;;;;;19.60;99.90;;;;;;5076194;28;19924;-76
2022/08/14 04:44:58;;;;;;;;;;;19.70;99.90;;;;;;5109864;28;20264;-76
2022/08/14 04:50:08;;;;;;;;;;;19.70;99.90;;;;;;5096138;28;19927;-76
2022/08/14 04:52:34;;;;;;;;;;;19.70;99.90;;;;;;5095869;28;19920;-76
2022/08/14 04:55:00;;;;;;;;;;;19.70;99.90;;;;;;5130255;27;19924;-76
2022/08/14 04:57:25;;;;;;;;;;;19.70;99.90;;;;;;5079130;28;19920;-76
2022/08/14 04:59:51;;;;;;;;;;;19.70;99.90;;;;;;5129904;27;19924;-76
2022/08/14 05:02:17;;;;;;;;;;;19.80;99.90;;;;;;5112836;28;19924;-76
2022/08/14 05:04:43;;;;;;;;;;;19.80;99.90;;;;;;5127865;27;19928;-76
2022/08/14 05:07:08;;;;;;;;;;;19.80;99.90;;;;;;5094583;28;19974;-76
2022/08/14 05:09:34;;;;;;;;;;;19.80;99.90;;;;;;5095218;28;20272;-76
2022/08/14 05:11:59;;;;;;;;;;;19.90;99.90;;;;;;5129515;27;19974;-76
2022/08/14 05:14:25;;;;;;;;;;;19.90;99.90;;;;;;5129845;27;19927;-76
2022/08/14 05:16:51;;;;;;;;;;;19.90;99.90;;;;;;5128806;27;19920;-76
2022/08/14 05:19:16;;;;;;;;;;;19.90;99.90;;;;;;5094151;28;19974;-76
2022/08/14 05:21:42;;;;;;;;;;;19.90;99.90;;;;;;5102328;28;19923;-76
2022/08/14 05:24:10;;;;;;;;;;;20.00;99.90;;;;;;5132911;27;19919;-76
2022/08/14 05:26:39;;;;;;;;;;;20.00;99.90;;;;;;5102551;28;19925;-77
2022/08/14 05:29:08;;;;;;;;;;;20.00;99.90;;;;;;5099766;28;19924;-76
2022/08/14 05:31:36;;;;;;;;;;;20.10;99.90;;;;;;5077811;28;19927;-76
2022/08/14 05:34:01;;;;;;;;;;;20.10;99.90;;;;;;5077486;28;19924;-76
2022/08/14 05:36:27;;;;;;;;;;;20.10;99.90;;;;;;5063413;28;20015;-76
2022/08/14 05:38:53;;;;;;;;;;;20.20;99.90;;;;;;5096778;28;20015;-76
2022/08/14 05:41:19;;;;;;;;;;;20.20;99.90;;;;;;5096646;28;19927;-76
2022/08/14 05:43:46;;;;;;;;;;;20.30;99.90;;;;;;5095120;28;20338;-76
2022/08/14 05:46:14;;;;;;;;;;;20.30;99.90;;;;;;5125726;27;20019;-77
2022/08/14 05:48:39;;;;;;;;;;;20.40;99.90;;;;;;5128655;27;19920;-76
2022/08/14 05:51:05;;;;;;;;;;;20.40;99.90;;;;;;5077551;28;19969;-78
2022/08/14 05:53:31;;;;;;;;;;;20.50;99.90;;;;;;5081237;28;19921;-77
2022/08/14 05:55:57;;;;;;;;;;;20.50;99.90;;;;;;5078757;28;19920;-75
2022/08/14 05:58:23;;;;;;;;;;;20.60;99.90;;;;;;5104551;28;19932;-77
2022/08/14 06:00:49;;;;;;;;;;;20.60;99.90;;;;;;5109634;28;20372;-77
2022/08/14 06:03:19;;;;;;;;;;;20.60;99.90;;;;;;5076332;28;19926;-76
2022/08/14 06:05:46;;;;;;;;;;;20.70;99.90;;;;;;5094314;28;19920;-77
2022/08/14 06:08:15;;;;;;;;;;;20.80;99.90;;;;;;5093192;28;19946;-76
2022/08/14 06:10:41;;;;;;;;;;;20.90;99.90;;;;;;5077796;28;19920;-76
2022/08/14 06:13:06;;;;;;;;;;;20.90;99.90;;;;;;5077235;28;20450;-77
2022/08/14 06:15:32;;;;;;;;;;;21.00;99.90;;;;;;5109120;27;19920;-76
2022/08/14 06:17:58;;;;;;;;;;;21.10;99.90;;;;;;5057700;28;20288;-76
2022/08/14 06:20:24;;;;;;;;;;;21.10;99.90;;;;;;5107924;28;20268;-76
2022/08/14 06:22:49;;;;;;;;;;;21.20;99.90;;;;;;5074209;28;20036;-76
2022/08/14 06:25:15;;;;;;;;;;;21.30;99.90;;;;;;5073880;28;19920;-75
2022/08/14 06:27:43;;;;;;;;;;;21.40;99.90;;;;;;5093007;28;20368;-75
2022/08/14 06:30:10;;;;;;;;;;;21.50;99.90;;;;;;5127977;27;19920;-75
2022/08/14 06:32:36;;;;;;;;;;;21.60;99.90;;;;;;5089899;28;20050;-75
2022/08/14 06:35:05;;;;;;;;;;;21.70;99.90;;;;;;5076647;28;20343;-77
2022/08/14 06:38:00;;;;;;;;;;;21.70;99.90;;;;;;5093729;28;19985;-77
2022/08/14 06:40:30;;;;;;;;;;;21.80;99.90;;;;;;5080066;28;19924;-78
2022/08/14 06:42:56;;;;;;;;;;;21.90;99.90;;;;;;5093548;28;19920;-78
2022/08/14 06:45:22;;;;;;;;;;;22.00;99.90;;;;;;5112772;27;19920;-78
2022/08/14 06:47:48;;;;;;;;;;;22.00;99.90;;;;;;5097013;28;20363;-80
2022/08/14 06:50:18;;;;;;;;;;;22.20;99.90;;;;;;5077243;28;19924;-78
2022/08/14 06:52:44;;;;;;;;;;;22.20;99.90;;;;;;5092378;28;19920;-79
2022/08/14 06:55:11;;;;;;;;;;;22.40;99.90;;;;;;5126912;27;20039;-78
2022/08/14 06:57:41;;;;;;;;;;;22.40;99.90;;;;;;5127259;27;19920;-78
2022/08/14 07:00:11;;;;;;;;;;;22.50;99.90;;;;;;5109034;28;19971;-78
2022/08/14 07:08:05;;;;;;;;;;;22.80;99.90;;;;;;5077545;28;19924;-78
2022/08/14 07:10:31;;;;;;;;;;;22.80;99.90;;;;;;5081195;28;20353;-78
2022/08/14 07:12:57;;;;;;;;;;;22.90;99.90;;;;;;5056222;28;19975;-78
2022/08/14 07:15:23;;;;;;;;;;;23.00;99.90;;;;;;5122461;27;19985;-78
2022/08/14 07:17:49;;;;;;;;;;;23.10;99.90;;;;;;5093657;28;19926;-78
2022/08/14 07:20:17;;;;;;;;;;;23.10;99.90;;;;;;5075222;28;19920;-79
2022/08/14 07:22:44;;;;;;;;;;;23.20;99.90;;;;;;5075684;28;19928;-78
2022/08/14 07:25:09;;;;;;;;;;;23.30;99.90;;;;;;5076132;28;19985;-78
2022/08/14 07:27:35;;;;;;;;;;;23.40;99.90;;;;;;5092973;28;20379;-79
2022/08/14 07:30:04;;;;;;;;;;;23.50;99.90;;;;;;5075740;28;21673;-78
2022/08/14 07:32:29;;;;;;;;;;;23.60;99.90;;;;;;5092376;28;20241;-78
2022/08/14 07:34:55;;;;;;;;;;;23.60;99.90;;;;;;5105131;28;19927;-78
2022/08/14 07:37:20;;;;;;;;;;;23.70;99.90;;;;;;5092906;28;19982;-78
2022/08/14 07:39:46;;;;;;;;;;;23.80;99.90;;;;;;5109957;28;20010;-80
2022/08/14 07:42:11;;;;;;;;;;;23.80;99.90;;;;;;5087449;28;19928;-78
2022/08/14 07:44:37;;;;;;;;;;;24.00;99.90;;;;;;5089296;28;19935;-79
2022/08/14 07:47:03;;;;;;;;;;;24.00;99.90;;;;;;5088862;28;19954;-78
2022/08/14 07:49:29;;;;;;;;;;;24.10;99.90;;;;;;5055793;28;19921;-79
2022/08/14 07:51:55;;;;;;;;;;;24.20;99.90;;;;;;5084714;28;19925;-79
2022/08/14 07:54:21;;;;;;;;;;;24.30;99.90;;;;;;5126432;27;19990;-79
2022/08/14 07:56:47;;;;;;;;;;;24.40;99.90;;;;;;5058927;28;19928;-79
2022/08/14 07:59:12;;;;;;;;;;;24.40;99.90;;;;;;5059242;28;19927;-80
2022/08/14 08:01:39;;;;;;;;;;;24.50;99.90;;;;;;5057527;28;19943;-79
2022/08/14 08:04:07;;;;;;;;;;;24.60;99.90;;;;;;5076127;28;20368;-79
2022/08/14 08:06:33;;;;;;;;;;;24.70;99.90;;;;;;5058767;28;20382;-79
2022/08/14 08:08:59;;;;;;;;;;;24.70;99.90;;;;;;5092472;28;20248;-79
2022/08/14 08:11:25;;;;;;;;;;;24.80;99.90;;;;;;5075222;28;19927;-79
2022/08/14 08:13:52;;;;;;;;;;;24.90;99.90;;;;;;5092653;28;19924;-78
2022/08/14 08:16:22;;;;;;;;;;;25.00;99.90;;;;;;5109086;28;19923;-79
2022/08/14 08:18:48;;;;;;;;;;;25.10;99.90;;;;;;5056000;28;19935;-78
2022/08/14 08:21:14;;;;;;;;;;;25.20;99.90;;;;;;5089160;28;19928;-78
2022/08/14 08:23:39;;;;;;;;;;;25.30;99.90;;;;;;5073494;28;20358;-79
2022/08/14 08:26:05;;;;;;;;;;;25.40;99.90;;;;;;5055564;28;19920;-78
2022/08/14 08:28:30;;;;;;;;;;;25.50;99.90;;;;;;5088497;28;19920;-79
2022/08/14 08:30:59;;;;;;;;;;;25.60;99.90;;;;;;5092234;28;19945;-78
2022/08/14 08:33:26;;;;;;;;;;;25.60;99.90;;;;;;5075151;28;19920;-79
2022/08/14 08:35:53;;;;;;;;;;;25.70;99.90;;;;;;5075636;28;19998;-78
2022/08/14 08:38:21;;;;;;;;;;;25.80;99.90;;;;;;5075525;28;19920;-79
2022/08/14 08:40:47;;;;;;;;;;;25.90;99.90;;;;;;5075592;28;19927;-79
2022/08/14 08:43:16;;;;;;;;;;;26.00;99.90;;;;;;5074962;28;19965;-79
2022/08/14 08:45:42;;;;;;;;;;;26.10;99.90;;;;;;5109116;28;19924;-79
2022/08/14 08:48:08;;;;;;;;;;;26.20;99.90;;;;;;5108597;28;20372;-80
2022/08/14 08:50:35;;;;;;;;;;;26.30;99.90;;;;;;5058516;28;19921;-79
2022/08/14 08:53:02;;;;;;;;;;;26.40;99.90;;;;;;5075062;28;19924;-79
2022/08/14 08:55:29;;;;;;;;;;;26.40;99.90;;;;;;5057853;28;20360;-79
2022/08/14 08:57:56;;;;;;;;;;;26.50;99.90;;;;;;5111360;28;19927;-79
2022/08/14 09:00:22;;;;;;;;;;;26.50;99.90;;;;;;5078991;28;19927;-79
2022/08/14 09:02:56;;;;;;;;;;;26.60;99.90;;;;;;5099410;28;19923;-78
2022/08/14 09:05:22;;;;;;;;;;;26.70;99.90;;;;;;5057290;28;19974;-78
2022/08/14 09:07:47;;;;;;;;;;;26.70;99.90;;;;;;5058627;28;20218;-79
2022/08/14 09:10:13;;;;;;;;;;;26.80;99.90;;;;;;5074058;28;19969;-79
2022/08/14 09:12:38;;;;;;;;;;;26.90;99.90;;;;;;5095259;28;19920;-78
2022/08/14 09:15:05;;;;;;;;;;;27.00;99.90;;;;;;5094354;28;19927;-78
2022/08/14 09:17:31;;;;;;;;;;;27.10;99.90;;;;;;5078597;28;19969;-79
2022/08/14 09:19:58;;;;;;;;;;;27.20;99.90;;;;;;5042882;28;20294;-78
2022/08/14 09:22:24;;;;;;;;;;;27.30;99.90;;;;;;5058672;28;19921;-79
2022/08/14 09:24:50;;;;;;;;;;;27.30;99.90;;;;;;5092488;28;20349;-80
2022/08/14 09:27:16;;;;;;;;;;;27.50;99.90;;;;;;5066903;28;19927;-77
2022/08/14 09:29:41;;;;;;;;;;;27.50;99.90;;;;;;5061719;28;19932;-76
2022/08/14 09:32:08;;;;;;;;;;;27.60;99.90;;;;;;5103857;28;19924;-82
2022/08/14 09:34:51;;;;;;;;;;;27.60;99.90;;;;;;5076189;28;19954;-77
2022/08/14 09:37:49;;;;;;;;;;;27.70;99.90;;;;;;5090538;28;19920;-77
2022/08/14 09:40:16;;;;;;;;;;;27.80;99.90;;;;;;5052098;28;20003;-77
2022/08/14 09:42:42;;;;;;;;;;;27.80;99.90;;;;;;5075903;28;20328;-77
2022/08/14 09:45:14;;;;;;;;;;;27.90;99.90;;;;;;5117986;27;19971;-77
2022/08/14 09:47:40;;;;;;;;;;;28.00;99.90;;;;;;5089221;28;19924;-77
2022/08/14 09:50:14;;;;;;;;;;;28.10;99.90;;;;;;5123598;27;19928;-77
2022/08/14 09:52:47;;;;;;;;;;;28.10;99.90;;;;;;5069219;28;19933;-77
2022/08/14 09:55:20;;;;;;;;;;;28.20;99.90;;;;;;5063689;28;19969;-78
2022/08/14 09:57:45;;;;;;;;;;;28.40;99.90;;;;;;5094944;28;19959;-77
2022/08/14 10:00:18;;;;;;;;;;;28.50;99.90;;;;;;5095148;28;20336;-79
2022/08/14 10:02:56;;;;;;;;;;;28.40;99.90;;;;;;5086658;28;20019;-79
2022/08/14 10:05:32;;;;;;;;;;;28.60;99.90;;;;;;5126870;27;19932;-78
2022/08/14 10:07:59;;;;;;;;;;;28.80;99.90;;;;;;5096615;28;19925;-77
2022/08/14 10:10:31;;;;;;;;;;;28.80;99.90;;;;;;5125213;27;19931;-76
2022/08/14 10:12:56;;;;;;;;;;;28.90;99.90;;;;;;5082673;28;19924;-78
2022/08/14 10:15:24;;;;;;;;;;;29.00;99.90;;;;;;5071771;28;19981;-77
2022/08/14 10:17:51;;;;;;;;;;;29.00;99.40;;;;;;5088388;28;19921;-77
2022/08/14 10:20:21;;;;;;;;;;;29.10;99.80;;;;;;5071177;28;20306;-79
2022/08/14 10:22:48;;;;;;;;;;;29.20;99.60;;;;;;5071191;28;19932;-79
2022/08/14 10:25:14;;;;;;;;;;;29.20;99.90;;;;;;5087070;28;19920;-78
2022/08/14 10:27:40;;;;;;;;;;;29.40;99.70;;;;;;5083705;28;20024;-79
2022/08/14 10:30:14;;;;;;;;;;;29.50;99.90;;;;;;5090649;28;19943;-81
2022/08/14 10:32:47;;;;;;;;;;;29.60;99.30;;;;;;5080046;28;20437;-78
2022/08/14 10:35:14;;;;;;;;;;;29.60;99.80;;;;;;5087583;28;20347;-81
2022/08/14 10:37:49;;;;;;;;;;;29.70;98.70;;;;;;5090962;28;19932;-81
2022/08/14 10:40:35;;;;;;;;;;;29.70;99.10;;;;;;5086112;28;20257;-82
2022/08/14 10:43:01;;;;;;;;;;;29.90;99.30;;;;;;5073790;28;20388;-80
2022/08/14 10:45:31;;;;;;;;;;;29.90;98.10;;;;;;5090647;28;19928;-80
2022/08/14 10:47:57;;;;;;;;;;;30.10;98.60;;;;;;5117207;27;19931;-77
2022/08/14 10:50:33;;;;;;;;;;;30.20;99.10;;;;;;5107435;28;20457;-77
2022/08/14 10:53:00;;;;;;;;;;;30.30;97.50;;;;;;5105216;28;20391;-82
2022/08/14 10:55:38;;;;;;;;;;;30.30;98.00;;;;;;5073777;28;19935;-82
2022/08/14 10:58:08;;;;;;;;;;;30.40;98.50;;;;;;5105566;28;20400;-82
2022/08/14 11:00:34;;;;;;;;;;;30.60;98.50;;;;;;5113768;27;19929;-81
2022/08/14 11:03:01;;;;;;;;;;;30.60;97.90;;;;;;5053602;28;19993;-82
2022/08/14 11:05:47;;;;;;;;;;;30.60;97.60;;;;;;5053675;28;19924;-83
2022/08/14 11:08:18;;;;;;;;;;;30.60;98.10;;;;;;5058856;28;19931;-83
2022/08/14 11:10:44;;;;;;;;;;;30.70;97.80;;;;;;5090656;28;19928;-83
2022/08/14 11:13:14;;;;;;;;;;;30.80;97.40;;;;;;5073292;28;20348;-82
2022/08/14 11:15:40;;;;;;;;;;;31.00;97.90;;;;;;5107470;28;20387;-83
2022/08/14 11:18:05;;;;;;;;;;;31.00;97.60;;;;;;5077524;28;19924;-79
2022/08/14 11:20:31;;;;;;;;;;;31.10;97.20;;;;;;5101255;28;19928;-79
2022/08/14 11:22:59;;;;;;;;;;;31.20;96.90;;;;;;5062745;28;19928;-79
2022/08/14 11:25:30;;;;;;;;;;;31.40;97.40;;;;;;5085233;28;20384;-80
2022/08/14 11:27:57;;;;;;;;;;;31.50;96.60;;;;;;5079299;28;20015;-80
2022/08/14 11:30:23;;;;;;;;;;;31.70;96.70;;;;;;5087140;28;19927;-77
2022/08/14 11:32:49;;;;;;;;;;;31.40;96.00;;;;;;5103086;28;19928;-80
2022/08/14 11:35:18;;;;;;;;;;;31.60;96.60;;;;;;5082491;28;20402;-78
2022/08/14 11:37:58;;;;;;;;;;;31.90;96.10;;;;;;5090233;28;19928;-78
2022/08/14 11:40:25;;;;;;;;;;;32.40;96.00;;;;;;5073332;28;19928;-79
2022/08/14 11:42:54;;;;;;;;;;;32.60;94.90;;;;;;5087309;28;19935;-78
2022/08/14 11:45:33;;;;;;;;;;;32.80;94.10;;;;;;5089671;28;19932;-79
2022/08/14 11:48:22;;;;;;;;;;;33.00;94.80;;;;;;5089820;28;19955;-78
2022/08/14 11:50:48;;;;;;;;;;;32.60;94.30;;;;;;5065345;28;20287;-79
2022/08/14 11:53:21;;;;;;;;;;;32.50;95.50;;;;;;5075439;28;19928;-78
2022/08/14 11:55:53;;;;;;;;;;;32.70;94.50;;;;;;5092757;28;19928;-78
2022/08/14 11:58:23;;;;;;;;;;;32.60;93.70;;;;;;5087325;28;20342;-79
2022/08/14 12:00:52;;;;;;;;;;;32.30;94.70;;;;;;5104776;27;20381;-78
2022/08/14 12:03:18;;;;;;;;;;;32.70;94.30;;;;;;5073734;28;19924;-80
2022/08/14 12:05:45;;;;;;;;;;;32.50;94.60;;;;;;5100924;28;19928;-82
2022/08/14 12:08:10;;;;;;;;;;;33.00;95.40;;;;;;5089526;28;19928;-78
2022/08/14 12:10:37;;;;;;;;;;;33.50;94.20;;;;;;5068310;28;19932;-79
2022/08/14 12:13:13;;;;;;;;;;;33.90;93.30;;;;;;5090195;28;20015;-80
2022/08/14 12:15:39;;;;;;;;;;;34.40;93.00;;;;;;5088810;28;19976;-80
2022/08/14 12:18:05;;;;;;;;;;;34.70;92.80;;;;;;5089602;28;19998;-78
2022/08/14 12:20:38;;;;;;;;;;;34.90;92.90;;;;;;5080088;28;20412;-79
2022/08/14 12:23:05;;;;;;;;;;;35.00;91.60;;;;;;5106483;28;19971;-78
2022/08/14 12:25:31;;;;;;;;;;;34.60;91.00;;;;;;5089573;28;19933;-78
2022/08/14 12:27:59;;;;;;;;;;;34.80;91.00;;;;;;5080247;28;20049;-79
2022/08/14 12:30:26;;;;;;;;;;;35.30;91.30;;;;;;5090039;28;19987;-77
2022/08/14 12:32:52;;;;;;;;;;;35.50;90.90;;;;;;5124301;27;20516;-76
2022/08/14 12:35:17;;;;;;;;;;;34.70;89.80;;;;;;5127480;27;19975;-77
2022/08/14 12:37:50;;;;;;;;;;;34.10;90.50;;;;;;5094690;28;19980;-76
2022/08/14 12:40:17;;;;;;;;;;;33.70;90.50;;;;;;5126745;27;20248;-76
2022/08/14 12:42:43;;;;;;;;;;;33.90;91.20;;;;;;5127306;27;20010;-77
2022/08/14 12:45:11;;;;;;;;;;;34.40;91.30;;;;;;5093007;28;20026;-78
2022/08/14 12:47:41;;;;;;;;;;;34.90;91.70;;;;;;5110019;28;19928;-78
2022/08/14 12:50:10;;;;;;;;;;;34.60;90.70;;;;;;5087003;28;20057;-78
2022/08/14 12:52:39;;;;;;;;;;;34.50;90.60;;;;;;5086740;28;20007;-80
2022/08/14 12:55:06;;;;;;;;;;;34.80;90.30;;;;;;5119289;27;20334;-78
2022/08/14 12:57:34;;;;;;;;;;;35.00;90.40;;;;;;5097792;28;20346;-78
2022/08/14 13:00:08;;;;;;;;;;;34.80;90.60;;;;;;5121071;27;19947;-78
2022/08/14 13:02:38;;;;;;;;;;;35.30;91.30;;;;;;5085967;28;20382;-77
2022/08/14 13:05:04;;;;;;;;;;;35.70;91.40;;;;;;5075792;28;19935;-80
2022/08/14 13:07:30;;;;;;;;;;;35.50;89.50;;;;;;5096854;28;19927;-79
2022/08/14 13:09:56;;;;;;;;;;;35.40;90.10;;;;;;5095837;28;19989;-79
2022/08/14 13:12:28;;;;;;;;;;;35.30;89.00;;;;;;5113099;28;19949;-80
2022/08/14 13:14:58;;;;;;;;;;;35.70;89.50;;;;;;5099491;28;20328;-79
2022/08/14 13:17:24;;;;;;;;;;;35.60;89.60;;;;;;5092165;28;20402;-79
2022/08/14 13:19:55;;;;;;;;;;;35.70;89.90;;;;;;5077835;28;19931;-79
2022/08/14 13:22:25;;;;;;;;;;;35.20;86.00;;;;;;5106572;28;20478;-80
2022/08/14 13:24:51;;;;;;;;;;;34.60;86.30;;;;;;5092961;28;19932;-79
2022/08/14 13:27:18;;;;;;;;;;;34.60;86.90;;;;;;5092381;28;19928;-79
2022/08/14 13:29:44;;;;;;;;;;;34.90;87.50;;;;;;5121899;27;19932;-79
2022/08/14 13:32:11;;;;;;;;;;;35.70;89.20;;;;;;5106544;28;19932;-79
2022/08/14 13:34:37;;;;;;;;;;;36.20;87.50;;;;;;5078248;28;19931;-78
2022/08/14 13:37:05;;;;;;;;;;;36.50;84.50;;;;;;5078138;28;19924;-78
2022/08/14 13:39:31;;;;;;;;;;;36.50;84.90;;;;;;5064001;28;20069;-78
2022/08/14 13:42:00;;;;;;;;;;;36.70;84.30;;;;;;5119011;27;20375;-79
2022/08/14 13:44:25;;;;;;;;;;;36.80;83.40;;;;;;5090941;28;19920;-79
2022/08/14 13:46:51;;;;;;;;;;;36.70;83.60;;;;;;5092151;28;19920;-79
2022/08/14 13:49:18;;;;;;;;;;;36.70;82.90;;;;;;5074626;28;19989;-78
2022/08/14 13:51:48;;;;;;;;;;;37.10;84.30;;;;;;5074878;28;19920;-78
2022/08/14 13:54:15;;;;;;;;;;;37.00;84.00;;;;;;5108702;27;19927;-79
2022/08/14 13:56:40;;;;;;;;;;;36.60;84.40;;;;;;5093106;28;19928;-79
2022/08/14 13:59:06;;;;;;;;;;;36.20;84.40;;;;;;5089663;28;19924;-78
2022/08/14 14:01:33;;;;;;;;;;;35.70;84.10;;;;;;5103184;28;20365;-78
2022/08/14 14:03:59;;;;;;;;;;;35.20;87.60;;;;;;5091668;28;19928;-79
2022/08/14 14:06:25;;;;;;;;;;;35.20;83.40;;;;;;5076102;28;19931;-77
2022/08/14 14:08:53;;;;;;;;;;;35.30;87.00;;;;;;5094272;28;20714;-78
2022/08/14 14:11:22;;;;;;;;;;;35.90;87.30;;;;;;5091499;28;19920;-79
2022/08/14 14:13:52;;;;;;;;;;;36.70;84.80;;;;;;5091805;28;19920;-79
2022/08/14 14:16:19;;;;;;;;;;;37.50;85.40;;;;;;5074403;28;20343;-80
2022/08/14 14:18:50;;;;;;;;;;;38.10;84.20;;;;;;5091691;28;20251;-80
2022/08/14 14:21:17;;;;;;;;;;;38.60;82.40;;;;;;5091101;28;20430;-78
2022/08/14 14:23:43;;;;;;;;;;;39.10;79.30;;;;;;5096365;28;19959;-79
2022/08/14 14:26:11;;;;;;;;;;;39.10;77.40;;;;;;5091424;28;20305;-79
2022/08/14 14:28:40;;;;;;;;;;;39.40;77.90;;;;;;5091248;28;19974;-80
2022/08/14 14:31:06;;;;;;;;;;;39.00;75.30;;;;;;5088793;28;20006;-79
2022/08/14 14:33:33;;;;;;;;;;;38.70;75.00;;;;;;5074374;28;20275;-80
2022/08/14 14:36:00;;;;;;;;;;;38.40;76.80;;;;;;5074524;28;19975;-78
2022/08/14 14:38:28;;;;;;;;;;;38.20;75.10;;;;;;5057914;28;20370;-79